createdAt,value
2022-08-16T00:01:56.566Z,99.90
2022-08-16T00:04:29.004Z,99.90
2022-08-16T00:06:57.863Z,99.90
2022-08-16T00:09:26.218Z,99.90
2022-08-16T00:11:56.068Z,99.90
2022-08-16T00:14:30.983Z,99.90
2022-08-16T00:17:11.702Z,99.90
2022-08-16T00:19:53.404Z,99.90
2022-08-16T00:22:24.812Z,99.90
2022-08-16T00:24:54.731Z,99.90
2022-08-16T00:27:25.066Z,99.90
2022-08-16T00:30:08.456Z,99.90
2022-08-16T00:32:43.852Z,99.90
2022-08-16T00:35:16.981Z,99.90
2022-08-16T00:37:58.462Z,99.90
2022-08-16T00:40:36.610Z,99.90
2022-08-16T00:43:19.379Z,99.90
2022-08-16T00:46:00.129Z,99.90
2022-08-16T00:48:31.965Z,99.90
2022-08-16T00:51:17.469Z,99.90
2022-08-16T00:53:46.577Z,99.90
2022-08-16T00:56:55.970Z,99.90
2022-08-16T00:59:15.262Z,99.90
2022-08-16T01:01:48.100Z,99.90
2022-08-16T01:04:29.480Z,99.90
2022-08-16T01:07:01.780Z,99.90
2022-08-16T01:09:33.413Z,99.90
2022-08-16T01:12:03.207Z,99.90
2022-08-16T01:14:35.679Z,99.90
2022-08-16T01:17:08.791Z,99.90
2022-08-16T01:19:42.296Z,99.90
2022-08-16T01:22:46.826Z,99.90
2022-08-16T01:25:15.938Z,99.90
2022-08-16T01:27:48.081Z,99.90
2022-08-16T01:30:26.105Z,99.90
2022-08-16T01:33:02.674Z,99.90
2022-08-16T01:35:52.886Z,99.90
2022-08-16T01:38:25.841Z,99.90
2022-08-16T01:41:02.274Z,99.90
2022-08-16T01:43:32.706Z,99.90
2022-08-16T01:46:38.019Z,99.90
2022-08-16T01:48:57.902Z,99.90
2022-08-16T01:51:29.847Z,99.90
2022-08-16T01:53:59.397Z,99.90
2022-08-16T01:56:38.752Z,99.90
2022-08-16T01:59:15.777Z,99.90
2022-08-16T02:01:52.605Z,99.90
2022-08-16T02:04:40.032Z,99.90
2022-08-16T02:07:18.437Z,99.90
2022-08-16T02:09:58.898Z,99.90
2022-08-16T02:12:51.445Z,99.90
2022-08-16T02:15:26.521Z,99.90
2022-08-16T02:17:58.668Z,99.90
2022-08-16T02:20:33.916Z,99.90
2022-08-16T02:23:06.832Z,99.90
2022-08-16T02:25:51.003Z,99.90
2022-08-16T02:28:23.529Z,99.90
2022-08-16T02:30:53.316Z,99.90
2022-08-16T02:33:24.881Z,99.90
2022-08-16T02:36:14.204Z,99.90
2022-08-16T02:38:43.499Z,99.90
2022-08-16T02:41:12.134Z,99.90
2022-08-16T02:43:44.268Z,99.90
2022-08-16T02:46:12.667Z,99.90
2022-08-16T02:48:49.177Z,99.90
2022-08-16T02:51:19.431Z,99.90
2022-08-16T02:53:52.331Z,99.90
2022-08-16T02:56:22.701Z,99.90
2022-08-16T02:58:54.689Z,99.90
2022-08-16T03:01:36.480Z,99.90
2022-08-16T03:04:29.073Z,99.90
2022-08-16T03:06:59.149Z,99.90
2022-08-16T03:09:47.865Z,99.90
2022-08-16T03:12:20.439Z,99.90
2022-08-16T03:15:00.155Z,99.90
2022-08-16T03:17:32.513Z,99.90
2022-08-16T03:20:04.599Z,99.90
2022-08-16T03:22:37.523Z,99.90
2022-08-16T03:25:16.012Z,99.90
2022-08-16T03:27:53.957Z,99.90
2022-08-16T03:30:33.635Z,99.90
2022-08-16T03:33:07.545Z,99.90
2022-08-16T03:35:42.995Z,99.90
2022-08-16T03:38:38.670Z,99.90
2022-08-16T03:41:14.321Z,99.90
2022-08-16T03:43:57.069Z,99.90
2022-08-16T03:46:47.218Z,99.90
2022-08-16T03:49:22.522Z,99.90
2022-08-16T03:51:54.556Z,99.90
2022-08-16T03:54:28.538Z,99.90
2022-08-16T03:56:59.327Z,99.90
2022-08-16T03:59:30.446Z,99.90
2022-08-16T04:02:10.566Z,99.90
2022-08-16T04:04:51.918Z,99.90
2022-08-16T04:07:23.083Z,99.90
2022-08-16T04:09:53.969Z,99.90
2022-08-16T04:12:54.510Z,99.90
2022-08-16T04:15:17.207Z,99.90
2022-08-16T04:17:58.472Z,99.90
2022-08-16T04:20:34.018Z,99.90
2022-08-16T04:23:08.110Z,99.90
2022-08-16T04:25:38.851Z,99.90
2022-08-16T04:28:51.688Z,99.90
2022-08-16T04:30:58.758Z,99.90
2022-08-16T04:33:28.610Z,99.90
2022-08-16T04:36:00.578Z,99.90
2022-08-16T04:38:31.057Z,99.90
2022-08-16T04:41:02.467Z,99.90
2022-08-16T04:43:38.306Z,99.90
2022-08-16T04:46:33.200Z,99.90
2022-08-16T04:49:09.656Z,99.90
2022-08-16T04:51:42.335Z,99.90
2022-08-16T04:54:11.378Z,99.90
2022-08-16T04:56:42.815Z,99.90
2022-08-16T04:59:17.051Z,99.90
2022-08-16T05:01:57.978Z,99.90
2022-08-16T05:04:31.310Z,99.90
2022-08-16T05:07:01.461Z,99.90
2022-08-16T05:09:54.351Z,99.90
2022-08-16T05:12:30.526Z,99.90
2022-08-16T05:15:02.438Z,99.90
2022-08-16T05:17:33.902Z,99.90
2022-08-16T05:20:45.089Z,99.90
2022-08-16T05:22:59.491Z,99.90
2022-08-16T05:25:40.688Z,99.90
2022-08-16T05:28:19.651Z,99.90
2022-08-16T05:30:54.197Z,99.90
2022-08-16T05:33:26.293Z,99.90
2022-08-16T05:35:59.451Z,99.90
2022-08-16T05:38:39.577Z,99.90
2022-08-16T05:41:13.997Z,99.90
2022-08-16T05:43:46.974Z,99.90
2022-08-16T05:46:30.375Z,99.90
2022-08-16T05:49:09.704Z,99.90
2022-08-16T05:51:45.718Z,99.90
2022-08-16T05:54:24.886Z,99.90
2022-08-16T05:56:57.758Z,99.90
2022-08-16T05:59:29.035Z,99.90
2022-08-16T06:01:59.343Z,99.90
2022-08-16T06:04:36.291Z,99.90
2022-08-16T06:07:26.276Z,99.90
2022-08-16T06:10:02.959Z,99.90
2022-08-16T06:12:35.621Z,99.90
2022-08-16T06:15:11.443Z,99.90
2022-08-16T06:17:44.792Z,99.90
2022-08-16T06:20:24.309Z,99.90
2022-08-16T06:23:16.780Z,99.90
2022-08-16T06:25:58.920Z,99.90
2022-08-16T06:28:35.658Z,99.90
2022-08-16T06:31:11.920Z,99.90
2022-08-16T06:33:44.581Z,99.90
2022-08-16T06:36:16.554Z,99.90
2022-08-16T06:38:56.927Z,99.90
2022-08-16T06:41:45.496Z,99.90
2022-08-16T06:44:40.819Z,99.90
2022-08-16T06:47:24.345Z,99.90
2022-08-16T06:50:28.960Z,99.90
2022-08-16T06:53:08.397Z,99.90
2022-08-16T06:55:44.584Z,99.90
2022-08-16T06:58:22.148Z,99.90
2022-08-16T07:00:59.956Z,99.90
2022-08-16T07:03:32.507Z,99.90
2022-08-16T07:06:04.291Z,99.90
2022-08-16T07:08:42.494Z,99.90
2022-08-16T07:11:12.658Z,99.90
2022-08-16T07:14:04.024Z,99.90
2022-08-16T07:16:41.865Z,99.90
2022-08-16T07:19:11.404Z,99.90
2022-08-16T07:21:46.590Z,99.90
2022-08-16T07:24:30.779Z,99.90
2022-08-16T07:27:08.628Z,99.90
2022-08-16T07:29:42.431Z,99.90
2022-08-16T07:32:12.278Z,99.90
2022-08-16T07:34:48.145Z,99.90
2022-08-16T07:37:18.052Z,99.90
2022-08-16T07:40:11.709Z,99.90
2022-08-16T07:42:46.136Z,99.90
2022-08-16T07:45:17.042Z,99.90
2022-08-16T07:47:51.311Z,99.90
2022-08-16T07:50:56.627Z,99.90
2022-08-16T07:53:09.750Z,99.90
2022-08-16T07:55:48.170Z,99.90
2022-08-16T07:58:34.400Z,99.90
2022-08-16T08:01:10.979Z,99.90
2022-08-16T08:03:48.705Z,99.90
2022-08-16T08:06:24.685Z,99.90
2022-08-16T08:08:57.420Z,99.90
2022-08-16T08:11:31.167Z,99.90
2022-08-16T08:14:06.823Z,99.90
2022-08-16T08:16:45.264Z,99.90
2022-08-16T08:19:21.638Z,99.90
2022-08-16T08:21:58.482Z,99.90
2022-08-16T08:25:09.302Z,99.90
2022-08-16T08:27:44.195Z,99.90
2022-08-16T08:30:50.050Z,99.90
2022-08-16T08:33:04.405Z,99.90
2022-08-16T08:35:36.974Z,99.90
2022-08-16T08:38:08.863Z,99.90
2022-08-16T08:40:43.071Z,99.90
2022-08-16T08:43:17.871Z,99.90
2022-08-16T08:45:56.981Z,99.90
2022-08-16T08:48:35.078Z,99.90
2022-08-16T08:51:11.608Z,99.90
2022-08-16T08:54:00.123Z,99.50
2022-08-16T08:56:32.218Z,99.90
2022-08-16T08:59:13.640Z,99.70
2022-08-16T09:01:57.014Z,99.40
2022-08-16T09:04:30.298Z,99.00
2022-08-16T09:07:01.303Z,98.70
2022-08-16T09:09:34.210Z,98.70
2022-08-16T09:12:31.224Z,98.00
2022-08-16T09:15:14.473Z,97.50
2022-08-16T09:17:51.446Z,95.80
2022-08-16T09:20:25.555Z,95.90
2022-08-16T09:22:55.187Z,95.00
2022-08-16T09:25:35.350Z,95.30
2022-08-16T09:29:15.018Z,94.90
2022-08-16T09:31:17.571Z,94.70
2022-08-16T09:33:51.872Z,94.00
2022-08-16T09:36:32.123Z,93.40
2022-08-16T09:39:03.268Z,91.80
2022-08-16T09:41:32.742Z,92.20
2022-08-16T09:45:10.996Z,91.90
2022-08-16T09:46:57.839Z,91.40
2022-08-16T09:49:36.797Z,91.00
2022-08-16T09:52:05.926Z,89.60
2022-08-16T09:54:34.374Z,89.60
2022-08-16T09:57:03.217Z,87.90
2022-08-16T09:59:38.725Z,86.70
2022-08-16T10:02:26.641Z,86.00
2022-08-16T10:04:58.762Z,85.60
2022-08-16T10:07:44.171Z,85.10
2022-08-16T10:10:18.885Z,83.50
2022-08-16T10:13:14.269Z,83.10
2022-08-16T10:15:55.427Z,80.60
2022-08-16T10:18:56.334Z,78.00
2022-08-16T10:21:17.292Z,77.70
2022-08-16T10:23:48.520Z,76.40
2022-08-16T10:27:18.630Z,76.30
2022-08-16T10:29:07.474Z,75.30
2022-08-16T10:31:44.476Z,76.30
2022-08-16T10:34:30.999Z,74.50
2022-08-16T10:37:02.615Z,71.90
2022-08-16T10:39:40.718Z,71.50
2022-08-16T10:42:13.247Z,72.20
2022-08-16T10:44:42.433Z,70.30
2022-08-16T10:47:11.745Z,68.90
2022-08-16T10:49:40.135Z,68.70
2022-08-16T10:52:18.792Z,67.80
2022-08-16T10:57:42.353Z,65.70
2022-08-16T11:00:21.050Z,66.40
2022-08-16T11:02:59.079Z,67.00
2022-08-16T11:05:59.497Z,66.70
2022-08-16T11:08:36.431Z,64.80
2022-08-16T11:11:11.382Z,65.40
2022-08-16T11:14:05.929Z,65.60
2022-08-16T11:19:24.977Z,64.30
2022-08-16T11:22:38.523Z,63.50
2022-08-16T11:24:46.608Z,64.10
2022-08-16T11:27:35.990Z,63.00
2022-08-16T11:30:08.973Z,63.60
2022-08-16T11:32:38.007Z,62.60
2022-08-16T11:35:10.336Z,62.90
2022-08-16T11:40:33.131Z,62.60
2022-08-16T11:43:04.111Z,60.30
2022-08-16T11:45:36.173Z,60.30
2022-08-16T11:48:06.834Z,61.40
2022-08-16T11:50:38.081Z,60.00
2022-08-16T11:53:08.365Z,60.20
2022-08-16T11:55:44.124Z,60.20
2022-08-16T11:58:15.028Z,60.10
2022-08-16T12:00:51.817Z,60.70
2022-08-16T12:03:34.418Z,60.20
2022-08-16T12:06:10.683Z,60.60
2022-08-16T12:08:40.303Z,60.30
2022-08-16T12:11:11.289Z,60.00
2022-08-16T12:13:40.942Z,59.30
2022-08-16T12:16:10.762Z,59.80
2022-08-16T12:18:40.151Z,59.40
2022-08-16T12:21:10.638Z,59.70
2022-08-16T12:23:41.789Z,59.00
2022-08-16T12:26:13.808Z,58.50
2022-08-16T12:28:54.546Z,58.10
2022-08-16T12:31:24.909Z,57.30
2022-08-16T12:33:54.202Z,57.80
2022-08-16T12:36:26.157Z,58.00
2022-08-16T12:39:00.623Z,58.00
2022-08-16T12:41:34.930Z,58.00
2022-08-16T12:44:06.237Z,57.50
2022-08-16T12:46:35.562Z,57.20
2022-08-16T12:49:08.328Z,57.10
2022-08-16T12:51:58.617Z,56.90
2022-08-16T12:54:29.250Z,56.90
2022-08-16T12:57:02.337Z,56.50
2022-08-16T12:59:31.006Z,56.40
2022-08-16T13:02:02.679Z,55.20
2022-08-16T13:04:35.519Z,55.00
2022-08-16T13:07:08.478Z,55.10
2022-08-16T13:09:50.058Z,55.30
2022-08-16T13:12:28.135Z,54.60
2022-08-16T13:14:56.947Z,54.20
2022-08-16T13:17:29.704Z,54.70
2022-08-16T13:20:08.599Z,55.30
2022-08-16T13:25:17.416Z,56.20
2022-08-16T13:28:03.275Z,55.80
2022-08-16T13:30:41.870Z,56.60
2022-08-16T13:33:18.271Z,56.00
2022-08-16T13:35:58.115Z,55.90
2022-08-16T13:38:37.101Z,55.80
2022-08-16T13:41:10.811Z,55.30
2022-08-16T13:43:41.906Z,54.50
2022-08-16T13:46:12.895Z,54.10
2022-08-16T13:48:44.354Z,54.20
2022-08-16T13:51:18.017Z,54.60
2022-08-16T13:53:54.619Z,54.00
2022-08-16T13:56:37.008Z,53.70
2022-08-16T13:59:14.311Z,53.90
2022-08-16T14:01:55.913Z,52.90
2022-08-16T14:04:29.742Z,52.40
2022-08-16T14:07:01.425Z,52.30
2022-08-16T14:09:36.528Z,52.20
2022-08-16T14:12:18.233Z,52.20
2022-08-16T14:14:48.709Z,51.80
2022-08-16T14:17:23.477Z,52.30
2022-08-16T14:19:54.378Z,52.80
2022-08-16T14:22:35.621Z,52.90
2022-08-16T14:25:10.772Z,52.30
2022-08-16T14:27:42.190Z,52.20
2022-08-16T14:30:15.550Z,52.20
2022-08-16T14:32:46.943Z,52.50
2022-08-16T14:35:22.253Z,52.30
2022-08-16T14:38:06.061Z,52.20
2022-08-16T14:40:35.478Z,52.40
2022-08-16T14:43:06.938Z,52.70
2022-08-16T14:45:37.937Z,52.90
2022-08-16T14:48:07.752Z,53.00
2022-08-16T14:50:37.337Z,53.50
2022-08-16T14:53:09.214Z,53.10
2022-08-16T14:55:41.118Z,52.80
2022-08-16T14:58:18.748Z,52.40
2022-08-16T15:00:51.134Z,51.80
2022-08-16T15:03:23.273Z,52.00
2022-08-16T15:05:53.884Z,52.00
2022-08-16T15:08:36.180Z,51.30
2022-08-16T15:11:07.700Z,51.20
2022-08-16T15:13:36.593Z,51.40
2022-08-16T15:16:09.097Z,51.30
2022-08-16T15:18:37.345Z,51.00
2022-08-16T15:21:08.541Z,51.20
2022-08-16T15:23:37.166Z,51.10
2022-08-16T15:26:13.649Z,51.10
2022-08-16T15:29:00.171Z,50.50
2022-08-16T15:31:29.737Z,50.70
2022-08-16T15:33:58.386Z,50.70
2022-08-16T15:36:29.021Z,50.80
2022-08-16T15:39:07.743Z,50.60
2022-08-16T15:42:01.671Z,50.60
2022-08-16T15:44:44.631Z,50.50
2022-08-16T15:47:25.103Z,50.10
2022-08-16T15:49:56.004Z,50.10
2022-08-16T15:52:29.179Z,50.00
2022-08-16T15:54:59.280Z,49.60
2022-08-16T15:57:30.304Z,49.50
2022-08-16T16:00:14.943Z,49.40
2022-08-16T16:02:49.551Z,49.30
2022-08-16T16:05:19.543Z,49.40
2022-08-16T16:07:56.319Z,49.50
2022-08-16T16:10:29.683Z,49.60
2022-08-16T16:12:59.727Z,49.10
2022-08-16T16:15:32.835Z,49.10
2022-08-16T16:18:09.690Z,49.40
2022-08-16T16:20:39.690Z,49.20
2022-08-16T16:23:11.349Z,49.50
2022-08-16T16:25:43.756Z,49.70
2022-08-16T16:29:05.245Z,49.70
2022-08-16T16:31:07.308Z,49.80
2022-08-16T16:33:42.040Z,49.90
2022-08-16T16:36:20.828Z,49.90
2022-08-16T16:38:53.561Z,50.10
2022-08-16T16:41:25.423Z,50.00
2022-08-16T16:44:00.791Z,50.00
2022-08-16T16:46:42.898Z,50.30
2022-08-16T16:49:14.751Z,50.60
2022-08-16T16:51:44.650Z,51.20
2022-08-16T16:54:27.816Z,51.50
2022-08-16T16:56:57.822Z,51.70
2022-08-16T16:59:28.074Z,52.30
2022-08-16T17:02:01.366Z,52.40
2022-08-16T17:04:48.128Z,52.60
2022-08-16T17:07:16.435Z,52.70
2022-08-16T17:09:47.364Z,53.00
2022-08-16T17:12:24.528Z,53.10
2022-08-16T17:14:53.762Z,53.70
2022-08-16T17:17:22.640Z,53.80
2022-08-16T17:19:54.540Z,53.70
2022-08-16T17:22:23.237Z,53.70
2022-08-16T17:24:54.550Z,53.90
2022-08-16T17:27:32.870Z,53.90
2022-08-16T17:30:03.527Z,54.10
2022-08-16T17:32:48.911Z,54.60
2022-08-16T17:35:22.907Z,54.70
2022-08-16T17:37:54.291Z,55.00
2022-08-16T17:40:41.635Z,55.10
2022-08-16T17:43:16.334Z,55.30
2022-08-16T17:45:45.552Z,55.40
2022-08-16T17:48:16.425Z,55.40
2022-08-16T17:50:48.638Z,55.60
2022-08-16T17:53:26.107Z,55.90
2022-08-16T17:55:55.203Z,57.00
2022-08-16T17:58:26.398Z,57.70
2022-08-16T18:00:59.693Z,58.20
2022-08-16T18:04:07.603Z,58.60
2022-08-16T18:06:26.597Z,59.20
2022-08-16T18:09:02.643Z,59.10
2022-08-16T18:11:35.327Z,59.20
2022-08-16T18:14:03.877Z,59.40
2022-08-16T18:16:32.389Z,61.00
2022-08-16T18:19:00.682Z,60.00
2022-08-16T18:21:47.899Z,59.80
2022-08-16T18:24:19.571Z,59.90
2022-08-16T18:26:50.274Z,60.10
2022-08-16T18:29:20.522Z,60.70
2022-08-16T18:31:50.866Z,62.20
2022-08-16T18:34:20.624Z,63.70
2022-08-16T18:36:50.930Z,64.30
2022-08-16T18:39:19.173Z,65.00
2022-08-16T18:41:47.913Z,65.40
2022-08-16T18:44:26.773Z,65.80
2022-08-16T18:46:56.443Z,66.20
2022-08-16T18:49:24.827Z,66.60
2022-08-16T18:51:57.803Z,67.00
2022-08-16T18:54:28.097Z,67.40
2022-08-16T18:56:58.955Z,67.60
2022-08-16T18:59:29.039Z,68.00
2022-08-16T19:02:00.307Z,68.40
2022-08-16T19:04:55.237Z,68.70
2022-08-16T19:07:30.944Z,69.30
2022-08-16T19:10:02.875Z,70.00
2022-08-16T19:12:37.694Z,70.40
2022-08-16T19:15:15.891Z,70.90
2022-08-16T19:17:47.050Z,71.60
2022-08-16T19:20:17.950Z,72.00
2022-08-16T19:23:10.589Z,72.20
2022-08-16T19:25:47.225Z,72.40
2022-08-16T19:28:49.051Z,73.10
2022-08-16T19:31:09.070Z,72.70
2022-08-16T19:33:38.768Z,72.30
2022-08-16T19:36:07.370Z,72.90
2022-08-16T19:38:41.415Z,72.80
2022-08-16T19:41:10.105Z,72.60
2022-08-16T19:43:38.353Z,72.40
2022-08-16T19:46:07.113Z,73.00
2022-08-16T19:48:38.348Z,73.60
2022-08-16T19:51:10.142Z,73.50
2022-08-16T19:53:38.372Z,74.20
2022-08-16T19:56:08.351Z,74.50
2022-08-16T19:58:36.857Z,75.00
2022-08-16T20:01:05.425Z,75.50
2022-08-16T20:03:36.622Z,76.30
2022-08-16T20:06:05.303Z,76.60
2022-08-16T20:08:36.168Z,77.30
2022-08-16T20:11:08.087Z,78.10
2022-08-16T20:13:38.587Z,78.30
2022-08-16T20:16:07.040Z,79.30
2022-08-16T20:18:38.804Z,79.40
2022-08-16T20:21:07.407Z,80.20
2022-08-16T20:23:35.606Z,81.20
2022-08-16T20:26:03.832Z,82.60
2022-08-16T20:28:47.701Z,82.60
2022-08-16T20:31:24.191Z,83.50
2022-08-16T20:33:53.043Z,85.50
2022-08-16T20:36:21.299Z,85.90
2022-08-16T20:38:50.171Z,85.90
2022-08-16T20:41:18.678Z,86.60
2022-08-16T20:43:48.555Z,87.30
2022-08-16T20:46:19.153Z,87.80
2022-08-16T20:48:47.453Z,88.70
2022-08-16T20:51:15.783Z,89.50
2022-08-16T20:53:45.240Z,90.10
2022-08-16T20:56:16.075Z,90.10
2022-08-16T20:58:48.139Z,90.40
2022-08-16T21:01:16.461Z,90.70
2022-08-16T21:03:47.230Z,90.80
2022-08-16T21:06:15.474Z,91.10
2022-08-16T21:08:52.433Z,91.50
2022-08-16T21:11:28.382Z,92.00
2022-08-16T21:14:00.592Z,92.40
2022-08-16T21:16:29.132Z,93.00
2022-08-16T21:18:57.812Z,92.90
2022-08-16T21:21:32.089Z,93.20
2022-08-16T21:24:01.928Z,93.40
2022-08-16T21:26:30.209Z,93.60
2022-08-16T21:28:59.746Z,93.70
2022-08-16T21:31:30.893Z,94.00
2022-08-16T21:33:59.062Z,94.10
2022-08-16T21:36:35.232Z,94.10
2022-08-16T21:39:07.400Z,94.20
2022-08-16T21:41:38.319Z,94.30
2022-08-16T21:44:08.380Z,94.50
2022-08-16T21:46:39.058Z,94.80
2022-08-16T21:49:07.260Z,95.10
2022-08-16T21:51:36.250Z,95.30
2022-08-16T21:54:05.040Z,95.50
2022-08-16T21:56:33.282Z,95.60
2022-08-16T21:59:01.486Z,95.80
2022-08-16T22:01:31.119Z,96.10
2022-08-16T22:04:37.361Z,96.50
2022-08-16T22:06:47.625Z,96.80
2022-08-16T22:09:16.534Z,97.00
2022-08-16T22:11:46.896Z,97.40
2022-08-16T22:14:18.113Z,97.70
2022-08-16T22:16:49.929Z,97.90
2022-08-16T22:19:18.461Z,98.10
2022-08-16T22:21:46.730Z,98.20
2022-08-16T22:24:14.924Z,98.40
2022-08-16T22:26:46.168Z,98.60
2022-08-16T22:29:15.693Z,98.70
2022-08-16T22:31:46.594Z,99.10
2022-08-16T22:34:16.190Z,99.20
2022-08-16T22:36:44.621Z,99.60
2022-08-16T22:39:15.406Z,99.90
2022-08-16T22:41:45.582Z,99.90
2022-08-16T22:44:14.107Z,99.90
2022-08-16T22:46:45.176Z,99.90
2022-08-16T22:49:15.079Z,99.90
2022-08-16T22:51:43.315Z,99.90
2022-08-16T22:54:45.823Z,99.90
2022-08-16T22:56:59.631Z,99.90
2022-08-16T22:59:32.038Z,99.90
2022-08-16T23:02:05.935Z,99.90
2022-08-16T23:04:37.977Z,99.90
2022-08-16T23:07:08.443Z,99.90
2022-08-16T23:09:36.667Z,99.90
2022-08-16T23:12:08.318Z,99.90
2022-08-16T23:14:39.119Z,99.90
2022-08-16T23:17:07.568Z,99.90
2022-08-16T23:19:37.739Z,99.90
2022-08-16T23:22:08.413Z,99.90
2022-08-16T23:24:47.707Z,99.90
2022-08-16T23:27:27.348Z,99.90
2022-08-16T23:30:02.028Z,99.90
2022-08-16T23:32:30.197Z,99.90
2022-08-16T23:35:02.964Z,99.90
2022-08-16T23:37:31.147Z,99.90
2022-08-16T23:40:02.419Z,99.90
2022-08-16T23:42:52.582Z,99.90
2022-08-16T23:45:19.533Z,99.90
2022-08-16T23:47:47.828Z,99.90
2022-08-16T23:50:17.724Z,99.90
2022-08-16T23:53:00.382Z,99.90
2022-08-16T23:55:31.064Z,99.90
2022-08-16T23:58:01.818Z,99.90
